sensor_id;sensor_type;location;lat;lon;timestamp;P1;durP1;ratioP1;P2;durP2;ratioP2
51216;SDS011;37283;49.760;8.648;2022-09-17T00:00:57;2.30;;;0.80;;
51216;SDS011;37283;49.760;8.648;2022-09-17T00:03:24;2.05;;;1.13;;
51216;SDS011;37283;49.760;8.648;2022-09-17T00:05:59;3.58;;;0.75;;
51216;SDS011;37283;49.760;8.648;2022-09-17T00:08:29;2.55;;;0.90;;
51216;SDS011;37283;49.760;8.648;2022-09-17T00:10:56;2.05;;;0.70;;
51216;SDS011;37283;49.760;8.648;2022-09-17T00:13:23;1.55;;;0.80;;
51216;SDS011;37283;49.760;8.648;2022-09-17T00:15:49;4.95;;;0.90;;
51216;SDS011;37283;49.760;8.648;2022-09-17T00:18:17;4.22;;;0.82;;
51216;SDS011;37283;49.760;8.648;2022-09-17T00:20:45;4.70;;;1.10;;
51216;SDS011;37283;49.760;8.648;2022-09-17T00:23:12;2.28;;;0.75;;
51216;SDS011;37283;49.760;8.648;2022-09-17T00:25:41;3.97;;;1.00;;
51216;SDS011;37283;49.760;8.648;2022-09-17T00:28:09;3.22;;;0.90;;
51216;SDS011;37283;49.760;8.648;2022-09-17T00:30:41;7.10;;;0.80;;
51216;SDS011;37283;49.760;8.648;2022-09-17T00:33:13;2.97;;;0.70;;
51216;SDS011;37283;49.760;8.648;2022-09-17T00:35:40;4.20;;;1.00;;
51216;SDS011;37283;49.760;8.648;2022-09-17T00:38:07;3.35;;;0.90;;
51216;SDS011;37283;49.760;8.648;2022-09-17T00:40:33;3.42;;;0.93;;
51216;SDS011;37283;49.760;8.648;2022-09-17T00:43:01;3.03;;;0.88;;
51216;SDS011;37283;49.760;8.648;2022-09-17T00:45:28;1.83;;;0.70;;
51216;SDS011;37283;49.760;8.648;2022-09-17T00:48:02;5.32;;;1.17;;
51216;SDS011;37283;49.760;8.648;2022-09-17T00:50:38;3.03;;;0.90;;
51216;SDS011;37283;49.760;8.648;2022-09-17T00:53:10;7.35;;;0.90;;
51216;SDS011;37283;49.760;8.648;2022-09-17T00:55:39;3.63;;;1.00;;
51216;SDS011;37283;49.760;8.648;2022-09-17T00:58:09;2.83;;;0.82;;
51216;SDS011;37283;49.760;8.648;2022-09-17T01:00:38;5.18;;;1.05;;
51216;SDS011;37283;49.760;8.648;2022-09-17T01:03:05;4.10;;;1.13;;
51216;SDS011;37283;49.760;8.648;2022-09-17T01:08:24;2.70;;;1.00;;
51216;SDS011;37283;49.760;8.648;2022-09-17T01:16:49;6.05;;;0.98;;
51216;SDS011;37283;49.760;8.648;2022-09-17T01:19:27;2.97;;;0.97;;
51216;SDS011;37283;49.760;8.648;2022-09-17T01:22:07;3.53;;;0.90;;
51216;SDS011;37283;49.760;8.648;2022-09-17T01:35:53;7.20;;;1.15;;
51216;SDS011;37283;49.760;8.648;2022-09-17T01:38:27;4.47;;;1.00;;
51216;SDS011;37283;49.760;8.648;2022-09-17T01:41:08;4.22;;;1.10;;
51216;SDS011;37283;49.760;8.648;2022-09-17T01:43:46;7.50;;;1.00;;
51216;SDS011;37283;49.760;8.648;2022-09-17T01:49:10;2.40;;;0.73;;
51216;SDS011;37283;49.760;8.648;2022-09-17T01:51:39;4.68;;;1.20;;
51216;SDS011;37283;49.760;8.648;2022-09-17T01:54:13;4.43;;;1.00;;
51216;SDS011;37283;49.760;8.648;2022-09-17T01:56:45;3.38;;;0.90;;
51216;SDS011;37283;49.760;8.648;2022-09-17T01:59:16;5.20;;;1.20;;
51216;SDS011;37283;49.760;8.648;2022-09-17T02:01:46;4.97;;;0.98;;
51216;SDS011;37283;49.760;8.648;2022-09-17T02:04:22;4.15;;;1.23;;
51216;SDS011;37283;49.760;8.648;2022-09-17T02:07:02;4.03;;;0.98;;
51216;SDS011;37283;49.760;8.648;2022-09-17T02:09:33;4.57;;;1.30;;
51216;SDS011;37283;49.760;8.648;2022-09-17T02:12:03;5.07;;;1.10;;
51216;SDS011;37283;49.760;8.648;2022-09-17T02:14:34;4.70;;;1.10;;
51216;SDS011;37283;49.760;8.648;2022-09-17T02:17:15;7.13;;;1.48;;
51216;SDS011;37283;49.760;8.648;2022-09-17T02:19:47;3.90;;;1.40;;
51216;SDS011;37283;49.760;8.648;2022-09-17T02:30:24;4.43;;;1.33;;
51216;SDS011;37283;49.760;8.648;2022-09-17T02:32:52;6.38;;;1.20;;
51216;SDS011;37283;49.760;8.648;2022-09-17T02:35:19;6.05;;;1.35;;
51216;SDS011;37283;49.760;8.648;2022-09-17T02:37:45;5.68;;;1.48;;
51216;SDS011;37283;49.760;8.648;2022-09-17T02:40:12;11.30;;;1.83;;
51216;SDS011;37283;49.760;8.648;2022-09-17T02:42:58;2.85;;;1.10;;
51216;SDS011;37283;49.760;8.648;2022-09-17T02:48:37;7.22;;;1.67;;
51216;SDS011;37283;49.760;8.648;2022-09-17T02:56:56;4.53;;;1.48;;
51216;SDS011;37283;49.760;8.648;2022-09-17T02:59:26;3.70;;;1.25;;
51216;SDS011;37283;49.760;8.648;2022-09-17T03:02:07;9.00;;;1.50;;
51216;SDS011;37283;49.760;8.648;2022-09-17T03:04:38;5.03;;;1.48;;
51216;SDS011;37283;49.760;8.648;2022-09-17T03:07:08;6.63;;;1.45;;
51216;SDS011;37283;49.760;8.648;2022-09-17T03:09:37;10.68;;;1.48;;
51216;SDS011;37283;49.760;8.648;2022-09-17T03:12:04;7.55;;;1.42;;
51216;SDS011;37283;49.760;8.648;2022-09-17T03:14:30;5.40;;;1.30;;
51216;SDS011;37283;49.760;8.648;2022-09-17T03:16:56;7.32;;;1.52;;
51216;SDS011;37283;49.760;8.648;2022-09-17T03:19:23;6.00;;;1.60;;
51216;SDS011;37283;49.760;8.648;2022-09-17T03:21:49;4.43;;;1.38;;
51216;SDS011;37283;49.760;8.648;2022-09-17T03:24:16;6.35;;;1.45;;
51216;SDS011;37283;49.760;8.648;2022-09-17T03:26:42;7.75;;;1.60;;
51216;SDS011;37283;49.760;8.648;2022-09-17T03:29:09;9.88;;;1.60;;
51216;SDS011;37283;49.760;8.648;2022-09-17T03:31:35;4.72;;;1.23;;
51216;SDS011;37283;49.760;8.648;2022-09-17T03:34:01;7.80;;;1.55;;
51216;SDS011;37283;49.760;8.648;2022-09-17T03:36:28;6.13;;;1.40;;
51216;SDS011;37283;49.760;8.648;2022-09-17T03:38:55;6.47;;;1.58;;
51216;SDS011;37283;49.760;8.648;2022-09-17T03:41:22;5.85;;;1.60;;
51216;SDS011;37283;49.760;8.648;2022-09-17T03:43:48;5.88;;;1.60;;
51216;SDS011;37283;49.760;8.648;2022-09-17T03:46:15;5.50;;;1.40;;
51216;SDS011;37283;49.760;8.648;2022-09-17T03:48:42;7.72;;;1.63;;
51216;SDS011;37283;49.760;8.648;2022-09-17T03:51:08;7.13;;;1.50;;
51216;SDS011;37283;49.760;8.648;2022-09-17T03:53:35;10.45;;;2.17;;
51216;SDS011;37283;49.760;8.648;2022-09-17T03:56:03;4.60;;;1.10;;
51216;SDS011;37283;49.760;8.648;2022-09-17T03:58:30;9.13;;;2.33;;
51216;SDS011;37283;49.760;8.648;2022-09-17T04:00:57;6.72;;;1.42;;
51216;SDS011;37283;49.760;8.648;2022-09-17T04:03:23;7.63;;;1.20;;
51216;SDS011;37283;49.760;8.648;2022-09-17T04:05:51;5.40;;;1.25;;
51216;SDS011;37283;49.760;8.648;2022-09-17T04:08:17;6.80;;;1.40;;
51216;SDS011;37283;49.760;8.648;2022-09-17T04:10:44;5.78;;;1.67;;
51216;SDS011;37283;49.760;8.648;2022-09-17T04:13:11;5.15;;;1.45;;
51216;SDS011;37283;49.760;8.648;2022-09-17T04:15:38;4.20;;;1.80;;
51216;SDS011;37283;49.760;8.648;2022-09-17T04:18:05;7.20;;;1.92;;
51216;SDS011;37283;49.760;8.648;2022-09-17T04:20:31;5.53;;;1.42;;
51216;SDS011;37283;49.760;8.648;2022-09-17T04:22:57;7.75;;;1.50;;
51216;SDS011;37283;49.760;8.648;2022-09-17T04:25:24;6.47;;;1.40;;
51216;SDS011;37283;49.760;8.648;2022-09-17T04:27:50;4.68;;;1.60;;
51216;SDS011;37283;49.760;8.648;2022-09-17T04:30:17;6.10;;;1.65;;
51216;SDS011;37283;49.760;8.648;2022-09-17T04:32:43;7.20;;;1.50;;
51216;SDS011;37283;49.760;8.648;2022-09-17T04:35:10;5.82;;;1.58;;
51216;SDS011;37283;49.760;8.648;2022-09-17T04:37:37;5.70;;;1.25;;
51216;SDS011;37283;49.760;8.648;2022-09-17T04:40:04;6.70;;;1.60;;
51216;SDS011;37283;49.760;8.648;2022-09-17T04:42:33;6.53;;;1.35;;
51216;SDS011;37283;49.760;8.648;2022-09-17T04:44:59;5.47;;;1.42;;
51216;SDS011;37283;49.760;8.648;2022-09-17T04:47:26;5.53;;;1.50;;
51216;SDS011;37283;49.760;8.648;2022-09-17T04:49:52;7.55;;;1.95;;
51216;SDS011;37283;49.760;8.648;2022-09-17T04:52:19;6.40;;;1.60;;
51216;SDS011;37283;49.760;8.648;2022-09-17T04:54:45;5.28;;;1.38;;
51216;SDS011;37283;49.760;8.648;2022-09-17T04:57:12;5.72;;;1.50;;
51216;SDS011;37283;49.760;8.648;2022-09-17T04:59:38;5.70;;;1.58;;
51216;SDS011;37283;49.760;8.648;2022-09-17T05:02:04;9.52;;;1.80;;
51216;SDS011;37283;49.760;8.648;2022-09-17T05:04:31;11.25;;;1.65;;
51216;SDS011;37283;49.760;8.648;2022-09-17T05:06:57;6.55;;;1.60;;
51216;SDS011;37283;49.760;8.648;2022-09-17T05:09:25;7.40;;;1.60;;
51216;SDS011;37283;49.760;8.648;2022-09-17T05:11:52;7.70;;;1.70;;
51216;SDS011;37283;49.760;8.648;2022-09-17T05:14:18;5.95;;;1.40;;
51216;SDS011;37283;49.760;8.648;2022-09-17T05:16:44;6.20;;;1.52;;
51216;SDS011;37283;49.760;8.648;2022-09-17T05:19:13;9.77;;;1.95;;
51216;SDS011;37283;49.760;8.648;2022-09-17T05:21:39;6.47;;;1.45;;
51216;SDS011;37283;49.760;8.648;2022-09-17T05:24:05;6.53;;;2.00;;
51216;SDS011;37283;49.760;8.648;2022-09-17T05:26:32;7.85;;;1.60;;
51216;SDS011;37283;49.760;8.648;2022-09-17T05:28:58;6.85;;;1.83;;
51216;SDS011;37283;49.760;8.648;2022-09-17T05:31:25;6.03;;;1.90;;
51216;SDS011;37283;49.760;8.648;2022-09-17T05:33:52;8.00;;;1.90;;
51216;SDS011;37283;49.760;8.648;2022-09-17T05:36:18;9.60;;;1.65;;
51216;SDS011;37283;49.760;8.648;2022-09-17T05:38:46;6.43;;;1.95;;
51216;SDS011;37283;49.760;8.648;2022-09-17T05:41:13;7.18;;;1.60;;
51216;SDS011;37283;49.760;8.648;2022-09-17T05:43:41;5.65;;;1.45;;
51216;SDS011;37283;49.760;8.648;2022-09-17T05:46:08;5.20;;;1.92;;
51216;SDS011;37283;49.760;8.648;2022-09-17T05:48:36;5.90;;;1.58;;
51216;SDS011;37283;49.760;8.648;2022-09-17T05:51:02;5.75;;;1.48;;
51216;SDS011;37283;49.760;8.648;2022-09-17T05:53:28;4.05;;;1.48;;
51216;SDS011;37283;49.760;8.648;2022-09-17T05:55:55;7.07;;;1.60;;
51216;SDS011;37283;49.760;8.648;2022-09-17T05:58:23;8.98;;;1.80;;
51216;SDS011;37283;49.760;8.648;2022-09-17T06:00:50;7.30;;;1.77;;
51216;SDS011;37283;49.760;8.648;2022-09-17T06:03:17;7.63;;;1.58;;
51216;SDS011;37283;49.760;8.648;2022-09-17T06:05:54;6.10;;;1.38;;
51216;SDS011;37283;49.760;8.648;2022-09-17T06:08:21;4.63;;;1.40;;
51216;SDS011;37283;49.760;8.648;2022-09-17T06:10:48;6.45;;;1.90;;
51216;SDS011;37283;49.760;8.648;2022-09-17T06:13:15;7.07;;;1.60;;
51216;SDS011;37283;49.760;8.648;2022-09-17T06:15:42;6.65;;;1.60;;
51216;SDS011;37283;49.760;8.648;2022-09-17T06:18:17;9.25;;;1.95;;
51216;SDS011;37283;49.760;8.648;2022-09-17T06:20:51;8.38;;;1.60;;
51216;SDS011;37283;49.760;8.648;2022-09-17T06:23:24;6.88;;;1.60;;
51216;SDS011;37283;49.760;8.648;2022-09-17T06:25:58;6.90;;;1.45;;
51216;SDS011;37283;49.760;8.648;2022-09-17T06:28:25;5.90;;;1.50;;
51216;SDS011;37283;49.760;8.648;2022-09-17T06:30:52;6.18;;;1.40;;
51216;SDS011;37283;49.760;8.648;2022-09-17T06:33:20;5.40;;;1.63;;
51216;SDS011;37283;49.760;8.648;2022-09-17T06:35:46;5.43;;;1.40;;
51216;SDS011;37283;49.760;8.648;2022-09-17T06:38:13;5.00;;;1.38;;
51216;SDS011;37283;49.760;8.648;2022-09-17T06:40:39;9.52;;;1.75;;
51216;SDS011;37283;49.760;8.648;2022-09-17T06:43:06;8.32;;;1.90;;
51216;SDS011;37283;49.760;8.648;2022-09-17T06:45:33;5.35;;;1.63;;
51216;SDS011;37283;49.760;8.648;2022-09-17T06:48:02;6.05;;;1.55;;
51216;SDS011;37283;49.760;8.648;2022-09-17T06:50:29;5.85;;;1.65;;
51216;SDS011;37283;49.760;8.648;2022-09-17T06:52:56;6.75;;;1.60;;
51216;SDS011;37283;49.760;8.648;2022-09-17T06:55:22;6.15;;;1.70;;
51216;SDS011;37283;49.760;8.648;2022-09-17T06:57:49;5.72;;;1.67;;
51216;SDS011;37283;49.760;8.648;2022-09-17T07:00:15;7.43;;;1.77;;
51216;SDS011;37283;49.760;8.648;2022-09-17T07:02:42;6.32;;;1.52;;
51216;SDS011;37283;49.760;8.648;2022-09-17T07:05:08;9.07;;;2.08;;
51216;SDS011;37283;49.760;8.648;2022-09-17T07:07:34;6.53;;;1.95;;
51216;SDS011;37283;49.760;8.648;2022-09-17T07:10:01;8.48;;;2.13;;
51216;SDS011;37283;49.760;8.648;2022-09-17T07:12:28;7.93;;;2.05;;
51216;SDS011;37283;49.760;8.648;2022-09-17T07:14:54;9.13;;;2.13;;
51216;SDS011;37283;49.760;8.648;2022-09-17T07:17:20;10.65;;;1.90;;
51216;SDS011;37283;49.760;8.648;2022-09-17T07:19:48;12.65;;;2.15;;
51216;SDS011;37283;49.760;8.648;2022-09-17T07:22:14;9.25;;;2.35;;
51216;SDS011;37283;49.760;8.648;2022-09-17T07:24:41;6.63;;;1.73;;
51216;SDS011;37283;49.760;8.648;2022-09-17T07:27:07;7.22;;;1.70;;
51216;SDS011;37283;49.760;8.648;2022-09-17T07:29:34;10.18;;;2.10;;
51216;SDS011;37283;49.760;8.648;2022-09-17T07:32:00;5.90;;;2.20;;
51216;SDS011;37283;49.760;8.648;2022-09-17T07:34:27;8.23;;;1.83;;
51216;SDS011;37283;49.760;8.648;2022-09-17T07:36:54;6.70;;;1.83;;
51216;SDS011;37283;49.760;8.648;2022-09-17T07:39:20;11.98;;;2.38;;
51216;SDS011;37283;49.760;8.648;2022-09-17T07:41:47;7.45;;;2.25;;
51216;SDS011;37283;49.760;8.648;2022-09-17T07:44:13;9.18;;;2.20;;
51216;SDS011;37283;49.760;8.648;2022-09-17T07:46:40;12.98;;;2.78;;
51216;SDS011;37283;49.760;8.648;2022-09-17T07:49:06;11.77;;;2.88;;
51216;SDS011;37283;49.760;8.648;2022-09-17T07:51:33;12.77;;;2.67;;
51216;SDS011;37283;49.760;8.648;2022-09-17T07:53:59;7.35;;;2.30;;
51216;SDS011;37283;49.760;8.648;2022-09-17T07:56:27;10.30;;;2.30;;
51216;SDS011;37283;49.760;8.648;2022-09-17T07:58:53;8.82;;;2.53;;
51216;SDS011;37283;49.760;8.648;2022-09-17T08:01:20;7.93;;;2.30;;
51216;SDS011;37283;49.760;8.648;2022-09-17T08:03:48;10.20;;;2.67;;
51216;SDS011;37283;49.760;8.648;2022-09-17T08:06:17;9.68;;;2.25;;
51216;SDS011;37283;49.760;8.648;2022-09-17T08:08:45;10.13;;;2.20;;
51216;SDS011;37283;49.760;8.648;2022-09-17T08:11:22;7.40;;;2.05;;
51216;SDS011;37283;49.760;8.648;2022-09-17T08:14:11;9.83;;;2.27;;
51216;SDS011;37283;49.760;8.648;2022-09-17T08:16:39;9.02;;;2.20;;
51216;SDS011;37283;49.760;8.648;2022-09-17T08:19:06;12.68;;;2.60;;
51216;SDS011;37283;49.760;8.648;2022-09-17T08:21:34;11.07;;;2.40;;
51216;SDS011;37283;49.760;8.648;2022-09-17T08:24:00;11.05;;;2.30;;
51216;SDS011;37283;49.760;8.648;2022-09-17T08:26:27;9.35;;;2.47;;
51216;SDS011;37283;49.760;8.648;2022-09-17T08:28:54;10.02;;;2.72;;
51216;SDS011;37283;49.760;8.648;2022-09-17T08:31:22;11.50;;;2.70;;
51216;SDS011;37283;49.760;8.648;2022-09-17T08:33:50;9.98;;;2.40;;
51216;SDS011;37283;49.760;8.648;2022-09-17T08:36:17;15.70;;;2.78;;
51216;SDS011;37283;49.760;8.648;2022-09-17T08:38:44;15.75;;;2.45;;
51216;SDS011;37283;49.760;8.648;2022-09-17T08:41:19;10.82;;;2.20;;
51216;SDS011;37283;49.760;8.648;2022-09-17T08:44:24;11.63;;;2.58;;
51216;SDS011;37283;49.760;8.648;2022-09-17T08:46:49;13.15;;;2.42;;
51216;SDS011;37283;49.760;8.648;2022-09-17T08:49:33;11.48;;;2.20;;
51216;SDS011;37283;49.760;8.648;2022-09-17T08:57:45;9.00;;;2.05;;
51216;SDS011;37283;49.760;8.648;2022-09-17T09:05:45;7.97;;;1.80;;
51216;SDS011;37283;49.760;8.648;2022-09-17T09:10:54;7.20;;;1.83;;
51216;SDS011;37283;49.760;8.648;2022-09-17T09:13:24;8.82;;;1.60;;
51216;SDS011;37283;49.760;8.648;2022-09-17T09:15:54;7.18;;;1.65;;
51216;SDS011;37283;49.760;8.648;2022-09-17T09:18:26;10.20;;;2.10;;
51216;SDS011;37283;49.760;8.648;2022-09-17T09:23:53;10.27;;;1.85;;
51216;SDS011;37283;49.760;8.648;2022-09-17T09:32:04;8.10;;;1.63;;
51216;SDS011;37283;49.760;8.648;2022-09-17T09:34:42;7.43;;;2.08;;
51216;SDS011;37283;49.760;8.648;2022-09-17T09:39:47;6.47;;;1.90;;
51216;SDS011;37283;49.760;8.648;2022-09-17T09:44:56;6.68;;;1.60;;
51216;SDS011;37283;49.760;8.648;2022-09-17T09:47:33;8.43;;;2.00;;
51216;SDS011;37283;49.760;8.648;2022-09-17T09:58:52;7.35;;;1.60;;
51216;SDS011;37283;49.760;8.648;2022-09-17T10:01:20;8.38;;;1.65;;
51216;SDS011;37283;49.760;8.648;2022-09-17T10:03:47;6.68;;;1.63;;
51216;SDS011;37283;49.760;8.648;2022-09-17T10:06:16;5.20;;;1.42;;
51216;SDS011;37283;49.760;8.648;2022-09-17T10:11:21;8.77;;;1.50;;
51216;SDS011;37283;49.760;8.648;2022-09-17T10:13:49;6.15;;;1.55;;
51216;SDS011;37283;49.760;8.648;2022-09-17T10:16:20;8.70;;;1.70;;
51216;SDS011;37283;49.760;8.648;2022-09-17T10:18:51;9.38;;;1.83;;
51216;SDS011;37283;49.760;8.648;2022-09-17T10:21:40;9.80;;;1.63;;
51216;SDS011;37283;49.760;8.648;2022-09-17T10:24:23;7.25;;;1.50;;
51216;SDS011;37283;49.760;8.648;2022-09-17T10:26:59;5.75;;;1.35;;
51216;SDS011;37283;49.760;8.648;2022-09-17T10:29:27;5.95;;;1.40;;
51216;SDS011;37283;49.760;8.648;2022-09-17T10:31:54;5.03;;;1.20;;
51216;SDS011;37283;49.760;8.648;2022-09-17T10:34:29;3.17;;;1.10;;
51216;SDS011;37283;49.760;8.648;2022-09-17T10:36:56;5.28;;;1.30;;
51216;SDS011;37283;49.760;8.648;2022-09-17T10:39:35;4.70;;;1.40;;
51216;SDS011;37283;49.760;8.648;2022-09-17T10:44:50;6.80;;;1.35;;
51216;SDS011;37283;49.760;8.648;2022-09-17T10:47:24;4.13;;;1.25;;
51216;SDS011;37283;49.760;8.648;2022-09-17T10:49:55;5.63;;;1.10;;
51216;SDS011;37283;49.760;8.648;2022-09-17T10:52:26;3.13;;;1.20;;
51216;SDS011;37283;49.760;8.648;2022-09-17T11:09:10;4.45;;;0.98;;
51216;SDS011;37283;49.760;8.648;2022-09-17T11:17:33;2.60;;;1.00;;
51216;SDS011;37283;49.760;8.648;2022-09-17T11:37:05;5.28;;;1.20;;
51216;SDS011;37283;49.760;8.648;2022-09-17T11:39:42;6.93;;;1.13;;
51216;SDS011;37283;49.760;8.648;2022-09-17T11:42:14;3.50;;;1.20;;
51216;SDS011;37283;49.760;8.648;2022-09-17T11:44:46;2.90;;;0.82;;
51216;SDS011;37283;49.760;8.648;2022-09-17T11:47:22;5.50;;;1.17;;
51216;SDS011;37283;49.760;8.648;2022-09-17T11:50:02;6.50;;;1.40;;
51216;SDS011;37283;49.760;8.648;2022-09-17T11:55:30;7.50;;;1.20;;
51216;SDS011;37283;49.760;8.648;2022-09-17T11:58:20;5.20;;;1.30;;
51216;SDS011;37283;49.760;8.648;2022-09-17T12:00:57;7.70;;;1.38;;
51216;SDS011;37283;49.760;8.648;2022-09-17T12:03:29;6.30;;;1.25;;
51216;SDS011;37283;49.760;8.648;2022-09-17T12:06:01;4.40;;;1.20;;
51216;SDS011;37283;49.760;8.648;2022-09-17T12:08:43;4.07;;;1.15;;
51216;SDS011;37283;49.760;8.648;2022-09-17T12:11:15;7.22;;;1.67;;
51216;SDS011;37283;49.760;8.648;2022-09-17T12:13:46;8.13;;;1.60;;
51216;SDS011;37283;49.760;8.648;2022-09-17T12:16:20;6.32;;;1.42;;
51216;SDS011;37283;49.760;8.648;2022-09-17T12:18:59;8.93;;;1.45;;
51216;SDS011;37283;49.760;8.648;2022-09-17T12:21:34;5.75;;;1.30;;
51216;SDS011;37283;49.760;8.648;2022-09-17T12:24:19;6.50;;;1.50;;
51216;SDS011;37283;49.760;8.648;2022-09-17T12:27:14;5.45;;;1.33;;
51216;SDS011;37283;49.760;8.648;2022-09-17T12:29:51;4.95;;;1.27;;
51216;SDS011;37283;49.760;8.648;2022-09-17T12:32:33;8.77;;;1.60;;
51216;SDS011;37283;49.760;8.648;2022-09-17T12:38:24;8.02;;;1.33;;
51216;SDS011;37283;49.760;8.648;2022-09-17T12:41:03;6.93;;;1.27;;
51216;SDS011;37283;49.760;8.648;2022-09-17T12:46:29;7.65;;;1.50;;
51216;SDS011;37283;49.760;8.648;2022-09-17T12:52:18;5.00;;;1.40;;
51216;SDS011;37283;49.760;8.648;2022-09-17T12:57:57;6.35;;;1.63;;
51216;SDS011;37283;49.760;8.648;2022-09-17T13:00:31;4.30;;;1.23;;
51216;SDS011;37283;49.760;8.648;2022-09-17T13:03:11;5.53;;;1.20;;
51216;SDS011;37283;49.760;8.648;2022-09-17T13:08:36;6.63;;;1.40;;
51216;SDS011;37283;49.760;8.648;2022-09-17T13:20:26;3.13;;;0.70;;
51216;SDS011;37283;49.760;8.648;2022-09-17T13:22:58;3.47;;;1.00;;
51216;SDS011;37283;49.760;8.648;2022-09-17T13:25:25;3.08;;;1.00;;
51216;SDS011;37283;49.760;8.648;2022-09-17T13:28:08;5.38;;;1.17;;
51216;SDS011;37283;49.760;8.648;2022-09-17T13:39:34;3.63;;;0.82;;
51216;SDS011;37283;49.760;8.648;2022-09-17T13:42:07;2.92;;;1.00;;
51216;SDS011;37283;49.760;8.648;2022-09-17T13:44:36;3.92;;;0.85;;
51216;SDS011;37283;49.760;8.648;2022-09-17T13:47:28;4.82;;;0.70;;
51216;SDS011;37283;49.760;8.648;2022-09-17T13:50:09;4.07;;;0.93;;
51216;SDS011;37283;49.760;8.648;2022-09-17T13:52:47;2.92;;;0.80;;
51216;SDS011;37283;49.760;8.648;2022-09-17T13:55:31;4.50;;;0.80;;
51216;SDS011;37283;49.760;8.648;2022-09-17T13:58:12;4.10;;;0.90;;
51216;SDS011;37283;49.760;8.648;2022-09-17T14:13:48;4.03;;;1.00;;
51216;SDS011;37283;49.760;8.648;2022-09-17T14:21:41;4.78;;;0.90;;
51216;SDS011;37283;49.760;8.648;2022-09-17T14:24:18;2.83;;;0.65;;
51216;SDS011;37283;49.760;8.648;2022-09-17T14:32:35;3.88;;;0.70;;
51216;SDS011;37283;49.760;8.648;2022-09-17T14:38:20;2.03;;;0.80;;
51216;SDS011;37283;49.760;8.648;2022-09-17T14:40:47;2.83;;;0.90;;
51216;SDS011;37283;49.760;8.648;2022-09-17T14:43:31;2.58;;;0.75;;
51216;SDS011;37283;49.760;8.648;2022-09-17T14:46:00;2.28;;;0.50;;
51216;SDS011;37283;49.760;8.648;2022-09-17T14:48:29;4.00;;;0.80;;
51216;SDS011;37283;49.760;8.648;2022-09-17T14:56:33;2.05;;;0.60;;
51216;SDS011;37283;49.760;8.648;2022-09-17T14:59:02;2.00;;;0.60;;
51216;SDS011;37283;49.760;8.648;2022-09-17T15:01:29;3.20;;;0.60;;
51216;SDS011;37283;49.760;8.648;2022-09-17T15:07:05;1.40;;;0.60;;
51216;SDS011;37283;49.760;8.648;2022-09-17T15:09:34;1.30;;;0.50;;
51216;SDS011;37283;49.760;8.648;2022-09-17T15:12:01;1.65;;;0.52;;
51216;SDS011;37283;49.760;8.648;2022-09-17T15:14:29;1.23;;;0.60;;
51216;SDS011;37283;49.760;8.648;2022-09-17T15:16:57;1.70;;;0.60;;
51216;SDS011;37283;49.760;8.648;2022-09-17T15:19:47;4.32;;;0.93;;
51216;SDS011;37283;49.760;8.648;2022-09-17T15:22:18;3.55;;;0.70;;
51216;SDS011;37283;49.760;8.648;2022-09-17T15:24:48;2.00;;;0.60;;
51216;SDS011;37283;49.760;8.648;2022-09-17T15:29:49;3.15;;;0.73;;
51216;SDS011;37283;49.760;8.648;2022-09-17T15:32:19;2.50;;;0.70;;
51216;SDS011;37283;49.760;8.648;2022-09-17T15:34:45;1.92;;;0.88;;
51216;SDS011;37283;49.760;8.648;2022-09-17T15:37:43;2.67;;;0.55;;
51216;SDS011;37283;49.760;8.648;2022-09-17T15:40:37;1.27;;;0.40;;
51216;SDS011;37283;49.760;8.648;2022-09-17T15:43:14;1.15;;;0.60;;
51216;SDS011;37283;49.760;8.648;2022-09-17T15:45:42;2.50;;;0.77;;
51216;SDS011;37283;49.760;8.648;2022-09-17T15:48:20;1.98;;;0.60;;
51216;SDS011;37283;49.760;8.648;2022-09-17T15:50:50;3.58;;;0.93;;
51216;SDS011;37283;49.760;8.648;2022-09-17T15:53:22;4.20;;;1.33;;
51216;SDS011;37283;49.760;8.648;2022-09-17T15:58:35;4.50;;;1.00;;
51216;SDS011;37283;49.760;8.648;2022-09-17T16:08:59;4.20;;;1.23;;
51216;SDS011;37283;49.760;8.648;2022-09-17T16:11:27;3.40;;;1.42;;
51216;SDS011;37283;49.760;8.648;2022-09-17T16:13:58;3.45;;;0.93;;
51216;SDS011;37283;49.760;8.648;2022-09-17T16:19:02;3.10;;;0.90;;
51216;SDS011;37283;49.760;8.648;2022-09-17T16:21:29;2.65;;;1.00;;
51216;SDS011;37283;49.760;8.648;2022-09-17T16:23:57;2.67;;;0.70;;
51216;SDS011;37283;49.760;8.648;2022-09-17T16:26:25;2.13;;;0.70;;
51216;SDS011;37283;49.760;8.648;2022-09-17T16:28:55;3.03;;;0.50;;
51216;SDS011;37283;49.760;8.648;2022-09-17T16:31:24;1.50;;;0.60;;
51216;SDS011;37283;49.760;8.648;2022-09-17T16:33:51;0.85;;;0.43;;
51216;SDS011;37283;49.760;8.648;2022-09-17T16:36:17;2.40;;;0.57;;
51216;SDS011;37283;49.760;8.648;2022-09-17T16:38:44;1.33;;;0.50;;
51216;SDS011;37283;49.760;8.648;2022-09-17T16:41:10;1.45;;;0.52;;
51216;SDS011;37283;49.760;8.648;2022-09-17T16:43:37;1.10;;;0.43;;
51216;SDS011;37283;49.760;8.648;2022-09-17T16:46:06;1.63;;;0.60;;
51216;SDS011;37283;49.760;8.648;2022-09-17T16:48:33;3.05;;;0.60;;
51216;SDS011;37283;49.760;8.648;2022-09-17T16:51:02;1.95;;;0.70;;
51216;SDS011;37283;49.760;8.648;2022-09-17T16:53:35;1.42;;;0.60;;
51216;SDS011;37283;49.760;8.648;2022-09-17T16:56:05;1.80;;;0.70;;
51216;SDS011;37283;49.760;8.648;2022-09-17T16:58:35;2.00;;;0.65;;
51216;SDS011;37283;49.760;8.648;2022-09-17T17:01:09;1.73;;;0.60;;
51216;SDS011;37283;49.760;8.648;2022-09-17T17:03:37;2.83;;;0.70;;
51216;SDS011;37283;49.760;8.648;2022-09-17T17:06:03;1.35;;;0.60;;
51216;SDS011;37283;49.760;8.648;2022-09-17T17:08:31;2.15;;;0.70;;
51216;SDS011;37283;49.760;8.648;2022-09-17T17:11:00;3.35;;;0.60;;
51216;SDS011;37283;49.760;8.648;2022-09-17T17:13:26;1.77;;;0.77;;
51216;SDS011;37283;49.760;8.648;2022-09-17T17:15:53;2.05;;;0.80;;
51216;SDS011;37283;49.760;8.648;2022-09-17T17:18:20;3.20;;;1.17;;
51216;SDS011;37283;49.760;8.648;2022-09-17T17:20:46;2.67;;;0.80;;
51216;SDS011;37283;49.760;8.648;2022-09-17T17:23:13;3.17;;;0.82;;
51216;SDS011;37283;49.760;8.648;2022-09-17T17:25:40;1.48;;;0.60;;
51216;SDS011;37283;49.760;8.648;2022-09-17T17:28:06;1.73;;;0.68;;
51216;SDS011;37283;49.760;8.648;2022-09-17T17:30:33;1.92;;;0.50;;
51216;SDS011;37283;49.760;8.648;2022-09-17T17:33:00;2.33;;;0.70;;
51216;SDS011;37283;49.760;8.648;2022-09-17T17:35:28;1.20;;;0.57;;
51216;SDS011;37283;49.760;8.648;2022-09-17T17:37:55;0.55;;;0.50;;
51216;SDS011;37283;49.760;8.648;2022-09-17T17:40:21;1.35;;;0.45;;
51216;SDS011;37283;49.760;8.648;2022-09-17T17:42:51;0.90;;;0.60;;
51216;SDS011;37283;49.760;8.648;2022-09-17T17:45:18;2.58;;;0.43;;
51216;SDS011;37283;49.760;8.648;2022-09-17T17:47:45;1.38;;;0.60;;
51216;SDS011;37283;49.760;8.648;2022-09-17T17:50:11;1.05;;;0.40;;
51216;SDS011;37283;49.760;8.648;2022-09-17T17:52:38;1.80;;;0.57;;
51216;SDS011;37283;49.760;8.648;2022-09-17T17:55:05;0.90;;;0.50;;
51216;SDS011;37283;49.760;8.648;2022-09-17T17:57:32;0.80;;;0.40;;
51216;SDS011;37283;49.760;8.648;2022-09-17T17:59:59;1.23;;;0.60;;
51216;SDS011;37283;49.760;8.648;2022-09-17T18:02:33;3.08;;;0.60;;
51216;SDS011;37283;49.760;8.648;2022-09-17T18:05:00;1.20;;;0.40;;
51216;SDS011;37283;49.760;8.648;2022-09-17T18:07:29;2.65;;;0.90;;
51216;SDS011;37283;49.760;8.648;2022-09-17T18:09:57;2.22;;;0.80;;
51216;SDS011;37283;49.760;8.648;2022-09-17T18:12:24;2.40;;;0.85;;
51216;SDS011;37283;49.760;8.648;2022-09-17T18:14:52;3.20;;;1.50;;
51216;SDS011;37283;49.760;8.648;2022-09-17T18:17:20;2.88;;;1.30;;
51216;SDS011;37283;49.760;8.648;2022-09-17T18:19:47;3.87;;;1.37;;
51216;SDS011;37283;49.760;8.648;2022-09-17T18:22:13;4.53;;;1.20;;
51216;SDS011;37283;49.760;8.648;2022-09-17T18:24:40;7.60;;;4.80;;
51216;SDS011;37283;49.760;8.648;2022-09-17T18:27:06;2.22;;;1.40;;
51216;SDS011;37283;49.760;8.648;2022-09-17T18:29:33;3.83;;;1.20;;